Time;durP1;ratioP1;P1;durP2;ratioP2;P2;SDS_P1;SDS_P2;PMS_P1;PMS_P2;Temp;Humidity;BMP_temperature;BMP_pressure;BME280_temperature;BME280_humidity;BME280_pressure;Samples;Min_cycle;Max_cycle;Signal;HPM_P1;HPM_P2
2022/03/27 00:00:40;;;;;;;3.05;2.10;;;17.80;28.60;20.20;94752.00;;;;10408936;28;46516;-63
2022/03/27 00:05:41;;;;;;;3.65;2.53;;;17.80;28.60;20.20;94759.00;;;;10392266;28;47721;-62
2022/03/27 00:16:01;;;;;;;4.30;2.67;;;17.80;28.70;20.20;94763.00;;;;10405903;28;45090;-63
2022/03/27 00:21:03;;;;;;;3.08;2.17;;;17.70;28.60;20.20;94757.00;;;;10393222;28;45355;-63
2022/03/27 00:26:04;;;;;;;3.92;2.40;;;17.70;28.70;20.20;94760.00;;;;10408334;28;46272;-63
2022/03/27 00:31:07;;;;;;;2.85;1.80;;;17.70;28.70;20.20;94744.00;;;;10374988;28;47239;-63
2022/03/27 00:36:13;;;;;;;2.72;1.98;;;17.70;28.70;20.20;94756.00;;;;10411193;28;45321;-63
2022/03/27 00:41:14;;;;;;;3.10;2.20;;;17.70;28.80;20.20;94743.00;;;;10398211;28;47869;-63
2022/03/27 00:46:15;;;;;;;3.72;1.85;;;17.70;28.80;20.20;94752.00;;;;10414482;28;45434;-63
2022/03/27 00:51:15;;;;;;;3.30;2.03;;;17.70;28.80;20.10;94761.00;;;;10398976;28;47553;-63
2022/03/27 00:56:16;;;;;;;3.17;2.20;;;17.70;28.80;20.10;94749.00;;;;10398757;28;45160;-63
2022/03/27 01:01:24;;;;;;;2.90;1.92;;;17.70;28.80;20.10;94761.00;;;;10394705;28;46525;-63
2022/03/27 01:06:34;;;;;;;2.80;2.08;;;17.70;28.80;20.10;94759.00;;;;10378204;28;48034;-63
2022/03/27 01:11:36;;;;;;;2.83;1.90;;;17.70;28.80;20.10;94742.00;;;;10398736;28;45227;-63
2022/03/27 01:16:45;;;;;;;2.70;1.77;;;17.60;28.80;20.10;94752.00;;;;10396544;28;47085;-63
2022/03/27 01:21:47;;;;;;;3.30;2.20;;;17.60;28.80;20.10;94741.00;;;;10413930;28;46127;-63
2022/03/27 01:26:48;;;;;;;3.58;2.25;;;17.60;28.80;20.10;94742.00;;;;10395465;28;47515;-63
2022/03/27 01:31:51;;;;;;;2.67;1.65;;;17.60;28.80;20.10;94734.00;;;;10398193;28;45145;-63
2022/03/27 01:36:52;;;;;;;2.45;1.70;;;17.60;28.80;20.10;94737.00;;;;10395221;28;47112;-63
2022/03/27 01:41:52;;;;;;;2.70;1.85;;;17.60;28.80;20.10;94733.00;;;;10412795;28;45290;-63
2022/03/27 01:46:55;;;;;;;2.20;1.63;;;17.60;28.80;20.10;94721.00;;;;10412192;28;45606;-64
2022/03/27 01:51:56;;;;;;;2.88;1.70;;;17.60;28.80;20.10;94729.00;;;;10395908;28;47066;-63
2022/03/27 01:56:56;;;;;;;2.65;1.85;;;17.60;28.80;20.00;94732.00;;;;10395081;28;48377;-63
2022/03/27 02:01:58;;;;;;;2.47;1.90;;;17.60;28.80;20.00;94733.00;;;;10412593;28;45263;-63
2022/03/27 02:06:59;;;;;;;3.53;1.90;;;17.60;28.80;20.00;94734.00;;;;10394900;28;47955;-63
2022/03/27 02:12:00;;;;;;;2.88;2.00;;;17.60;28.80;20.00;94738.00;;;;10411977;28;45436;-63
2022/03/27 02:17:00;;;;;;;3.38;1.83;;;17.60;28.80;20.00;94733.00;;;;10412029;28;45347;-63
2022/03/27 02:22:02;;;;;;;2.58;1.90;;;17.60;28.80;20.00;94742.00;;;;10411826;28;45138;-63
2022/03/27 02:27:04;;;;;;;3.88;2.17;;;17.50;28.80;20.00;94741.00;;;;10410783;28;47351;-63
2022/03/27 02:32:05;;;;;;;3.05;1.90;;;17.50;28.80;20.00;94742.00;;;;10395861;28;45427;-63
2022/03/27 02:37:06;;;;;;;2.70;1.70;;;17.50;28.80;20.00;94745.00;;;;10411010;28;45504;-64
2022/03/27 02:42:07;;;;;;;3.10;2.08;;;17.50;28.80;20.00;94726.00;;;;10411529;28;45256;-63
2022/03/27 02:47:08;;;;;;;2.53;1.80;;;17.50;28.80;20.00;94738.00;;;;10394967;28;45198;-63
2022/03/27 02:52:08;;;;;;;3.38;1.80;;;17.50;28.80;20.00;94733.00;;;;10394330;28;47355;-63
2022/03/27 02:57:09;;;;;;;2.65;1.85;;;17.50;28.80;20.00;94735.00;;;;10409704;28;46418;-63
2022/03/27 03:02:10;;;;;;;3.33;1.92;;;17.50;28.80;20.00;94727.00;;;;10410130;28;46394;-63
2022/03/27 03:07:11;;;;;;;3.38;1.90;;;17.50;28.80;19.90;94731.00;;;;10394741;28;46426;-63
2022/03/27 03:12:12;;;;;;;2.70;1.73;;;17.40;28.80;19.90;94723.00;;;;10393397;28;47184;-63
2022/03/27 03:17:13;;;;;;;2.03;1.58;;;17.50;28.80;19.90;94728.00;;;;10410162;28;45274;-63
2022/03/27 03:22:14;;;;;;;3.72;2.08;;;17.50;28.80;19.90;94719.00;;;;10394141;28;47165;-64
2022/03/27 03:27:15;;;;;;;3.05;1.90;;;17.40;28.80;19.90;94721.00;;;;10409184;28;47997;-63
2022/03/27 03:32:16;;;;;;;2.92;1.73;;;17.40;28.80;19.90;94730.00;;;;10395192;28;45266;-63
2022/03/27 03:37:17;;;;;;;3.85;1.98;;;17.40;28.80;19.90;94716.00;;;;10393233;28;46301;-63
2022/03/27 03:42:18;;;;;;;2.92;1.67;;;17.40;28.80;19.90;94716.00;;;;10409505;28;45990;-63
2022/03/27 03:47:19;;;;;;;2.25;1.60;;;17.40;28.90;19.90;94720.00;;;;10409182;28;45655;-63
2022/03/27 03:52:21;;;;;;;2.47;1.80;;;17.40;28.80;19.90;94729.00;;;;10409238;28;45697;-63
2022/03/27 03:57:22;;;;;;;3.08;1.75;;;17.40;28.90;19.90;94724.00;;;;10408953;28;46350;-63
2022/03/27 04:02:22;;;;;;;3.10;1.85;;;17.40;28.80;19.90;94724.00;;;;10409245;28;45305;-63
2022/03/27 04:07:23;;;;;;;3.00;1.83;;;17.40;28.90;19.90;94717.00;;;;10408205;28;45214;-63
2022/03/27 04:12:23;;;;;;;2.88;1.70;;;17.40;28.90;19.80;94722.00;;;;10397325;28;48188;-63
2022/03/27 04:17:24;;;;;;;4.13;2.05;;;17.40;28.80;19.80;94736.00;;;;10400041;28;45136;-63
2022/03/27 04:22:25;;;;;;;3.55;1.90;;;17.50;28.80;19.90;94713.00;;;;10400469;28;45410;-62
2022/03/27 04:27:25;;;;;;;3.28;1.90;;;17.50;28.70;19.90;94717.00;;;;10398214;28;48288;-63
2022/03/27 04:32:26;;;;;;;2.70;1.80;;;17.50;28.70;20.00;94734.00;;;;10415520;28;46492;-63
2022/03/27 04:37:27;;;;;;;3.13;2.10;;;17.50;28.70;20.00;94724.00;;;;10414469;28;45274;-63
2022/03/27 04:42:28;;;;;;;3.88;1.98;;;17.60;28.50;20.00;94742.00;;;;10399912;28;45452;-63
2022/03/27 04:47:29;;;;;;;2.65;1.85;;;17.60;28.40;20.00;94741.00;;;;10398988;28;46298;-63
2022/03/27 04:52:29;;;;;;;3.90;2.40;;;17.60;29.00;20.00;94736.00;;;;10399414;28;45588;-63
2022/03/27 04:57:38;;;;;;;3.65;2.40;;;17.60;28.40;20.00;94745.00;;;;10397228;28;47033;-63
2022/03/27 05:02:40;;;;;;;3.72;2.00;;;17.70;28.40;20.10;94750.00;;;;10398594;28;45420;-63
2022/03/27 05:07:43;;;;;;;3.60;2.17;;;17.70;28.30;20.10;94758.00;;;;10396577;28;47654;-63
2022/03/27 05:12:43;;;;;;;3.08;1.85;;;17.70;28.20;20.10;94745.00;;;;10413996;28;45944;-63
2022/03/27 05:17:55;;;;;;;4.05;2.50;;;17.70;28.20;20.10;94749.00;;;;10398645;28;45385;-63
2022/03/27 05:22:57;;;;;;;3.72;2.28;;;17.80;28.20;20.10;94743.00;;;;10395888;28;47263;-62
2022/03/27 05:27:58;;;;;;;3.38;2.08;;;17.80;28.20;20.20;94738.00;;;;10413136;28;46011;-63
2022/03/27 05:32:59;;;;;;;3.35;2.20;;;17.80;28.10;20.20;94748.00;;;;10413557;28;46258;-63
2022/03/27 05:38:00;;;;;;;2.92;1.80;;;17.80;28.00;20.20;94753.00;;;;10412624;28;45137;-63
2022/03/27 05:43:00;;;;;;;3.60;2.13;;;17.80;28.10;20.20;94751.00;;;;10395979;28;47311;-63
2022/03/27 05:48:03;;;;;;;3.75;2.33;;;17.80;28.00;20.20;94752.00;;;;10395397;28;46868;-63
2022/03/27 05:53:04;;;;;;;3.60;2.20;;;17.80;28.00;20.20;94757.00;;;;10412626;28;45550;-63
2022/03/27 05:58:05;;;;;;;3.10;2.05;;;17.90;28.00;20.20;94757.00;;;;10412685;28;45957;-63
2022/03/27 06:03:05;;;;;;;3.92;2.25;;;17.90;28.00;20.20;94758.00;;;;10397137;28;46210;-63
2022/03/27 06:08:06;;;;;;;3.00;2.05;;;17.90;27.90;20.30;94747.00;;;;10411618;28;45406;-63
2022/03/27 06:13:10;;;;;;;4.25;2.13;;;17.90;27.90;20.30;94762.00;;;;10412385;28;46058;-63
2022/03/27 06:18:11;;;;;;;3.15;2.03;;;17.90;27.80;20.30;94757.00;;;;10394466;28;47073;-63
2022/03/27 06:23:13;;;;;;;3.22;2.22;;;17.90;27.90;20.30;94762.00;;;;10412064;28;45580;-63
2022/03/27 06:28:13;;;;;;;4.25;2.35;;;17.90;27.80;20.30;94756.00;;;;10395546;28;46507;-63
2022/03/27 06:33:15;;;;;;;5.60;2.50;;;17.90;27.80;20.30;94759.00;;;;10394157;28;48561;-63
2022/03/27 06:38:17;;;;;;;4.10;2.30;;;17.90;27.80;20.30;94758.00;;;;10410431;28;45478;-63
2022/03/27 06:43:17;;;;;;;4.45;2.20;;;17.90;27.80;20.30;94772.00;;;;10410996;28;45320;-63
2022/03/27 06:48:18;;;;;;;7.40;2.28;;;17.90;27.80;20.30;94759.00;;;;10394108;28;47319;-63
2022/03/27 06:53:20;;;;;;;4.07;2.20;;;17.90;27.80;20.30;94765.00;;;;10395739;28;46240;-63
2022/03/27 06:58:21;;;;;;;3.72;2.47;;;17.90;27.70;20.30;94775.00;;;;10410159;28;45332;-63
2022/03/27 07:03:22;;;;;;;4.70;2.35;;;18.00;27.80;20.30;94768.00;;;;10411109;28;45155;-63
2022/03/27 07:08:22;;;;;;;3.20;2.10;;;17.90;27.70;20.30;94783.00;;;;10393160;28;46688;-63
2022/03/27 07:13:23;;;;;;;4.10;2.30;;;18.00;27.80;20.30;94779.00;;;;10410201;28;46570;-63
2022/03/27 07:18:24;;;;;;;4.30;2.28;;;18.00;27.70;20.30;94777.00;;;;10393958;28;45280;-63
2022/03/27 07:23:25;;;;;;;5.47;2.40;;;18.00;27.70;20.30;94781.00;;;;10394630;28;46012;-63
2022/03/27 07:28:28;;;;;;;4.43;2.30;;;18.00;27.70;20.40;94781.00;;;;10393820;28;46095;-63
2022/03/27 07:33:29;;;;;;;3.05;2.15;;;18.00;27.70;20.40;94783.00;;;;10393142;28;48360;-63
2022/03/27 07:38:30;;;;;;;3.20;2.17;;;18.00;27.70;20.30;94772.00;;;;10409360;28;45738;-63
2022/03/27 07:43:33;;;;;;;4.20;2.35;;;18.00;27.70;20.40;94787.00;;;;10410243;28;45566;-63
2022/03/27 07:48:33;;;;;;;3.92;2.60;;;18.00;27.70;20.40;94783.00;;;;10421834;28;45768;-63
2022/03/27 07:53:35;;;;;;;3.45;2.17;;;18.00;27.80;20.40;94785.00;;;;10423118;28;45409;-63
2022/03/27 07:58:36;;;;;;;3.92;2.40;;;18.00;27.70;20.40;94776.00;;;;10422348;28;46384;-63
2022/03/27 08:03:38;;;;;;;4.30;2.40;;;18.00;28.00;20.40;94774.00;;;;10407572;28;46285;-63
2022/03/27 08:08:39;;;;;;;5.30;2.50;;;18.00;27.70;20.40;94783.00;;;;10386756;28;47412;-63
2022/03/27 08:13:39;;;;;;;2.97;2.17;;;18.00;27.80;20.40;94786.00;;;;10402360;28;45303;-63
2022/03/27 08:18:41;;;;;;;3.60;2.05;;;18.00;27.80;20.40;94788.00;;;;10397520;28;47504;-63
2022/03/27 08:23:42;;;;;;;5.57;2.35;;;18.10;27.90;20.40;94766.00;;;;10399882;28;45176;-63
2022/03/27 08:28:44;;;;;;;3.22;2.13;;;18.00;27.80;20.40;94797.00;;;;10382243;28;45234;-64
2022/03/27 08:33:46;;;;;;;4.68;2.35;;;18.00;27.80;20.40;94790.00;;;;10390805;28;46543;-63
2022/03/27 08:38:47;;;;;;;5.93;2.53;;;18.00;27.80;20.50;94802.00;;;;10382703;28;48392;-62
2022/03/27 08:43:58;;;;;;;4.88;2.67;;;18.10;28.00;20.40;94799.00;;;;10398993;28;48050;-61
2022/03/27 08:49:10;;;;;;;6.38;2.55;;;18.00;28.00;20.40;94799.00;;;;10349086;28;47150;-62
2022/03/27 08:54:19;;;;;;;4.20;2.38;;;18.00;28.00;20.40;94792.00;;;;10386218;28;45398;-62
2022/03/27 08:59:20;;;;;;;3.50;2.28;;;18.00;28.00;20.40;94789.00;;;;10391557;28;45320;-63
2022/03/27 09:06:41;;;;;;;6.40;2.60;;;17.90;27.70;20.40;94798.00;;;;10587599;27;45428;-62
2022/03/27 09:11:43;;;;;;;4.50;2.50;;;18.00;28.70;20.40;94804.00;;;;10552012;27;46504;-62
2022/03/27 09:17:01;;;;;;;4.70;2.13;;;18.10;28.30;20.40;94805.00;;;;10515333;27;45257;-62
2022/03/27 09:22:22;;;;;;;4.13;2.45;;;18.00;28.30;20.40;94810.00;;;;10541588;27;46972;-63
2022/03/27 09:27:31;;;;;;;3.60;2.08;;;18.00;28.30;20.40;94804.00;;;;10533083;27;47264;-61
2022/03/27 09:32:37;;;;;;;4.43;2.65;;;18.10;28.30;20.40;94811.00;;;;10522791;27;47781;-62
2022/03/27 09:37:41;;;;;;;5.65;2.50;;;18.10;28.20;20.40;94802.00;;;;10521588;27;48235;-62
2022/03/27 09:42:43;;;;;;;4.78;2.95;;;18.00;28.20;20.50;94809.00;;;;10494695;28;47609;-62
2022/03/27 09:47:50;;;;;;;5.53;2.65;;;18.10;28.20;20.50;94809.00;;;;10543013;27;45592;-64
2022/03/27 09:52:51;;;;;;;6.13;3.53;;;18.10;28.20;20.50;94803.00;;;;10520433;27;47132;-62
2022/03/27 09:57:57;;;;;;;4.35;2.80;;;18.20;28.00;20.50;94813.00;;;;10514807;27;48362;-62
2022/03/27 10:03:08;;;;;;;;;;;18.10;28.00;20.50;94813.00;;;;10538641;27;46467;-60
2022/03/27 10:08:09;;;;;;;7.63;3.90;;;18.10;28.20;20.50;94805.00;;;;10507940;28;47137;-65
2022/03/27 10:13:12;;;;;;;5.75;3.58;;;18.10;27.70;20.50;94798.00;;;;10500860;27;47054;-62
2022/03/27 10:18:14;;;;;;;8.40;3.70;;;18.20;28.00;20.40;94802.00;;;;10521913;28;46323;-62
2022/03/27 10:23:27;;;;;;;6.57;3.20;;;18.10;28.00;20.40;94811.00;;;;10505218;28;47270;-62
2022/03/27 10:28:29;;;;;;;6.90;3.60;;;18.00;28.10;20.40;94810.00;;;;10522352;27;45191;-63
2022/03/27 10:33:31;;;;;;;5.65;3.10;;;18.00;28.20;20.40;94805.00;;;;10513293;28;47581;-63
2022/03/27 10:39:04;;;;;;;4.28;2.85;;;18.00;28.20;20.40;94791.00;;;;10520908;28;46394;-62
2022/03/27 10:44:40;;;;;;;6.10;3.30;;;18.00;28.30;20.40;94788.00;;;;10522414;28;45182;-62
2022/03/27 10:50:04;;;;;;;6.30;3.38;;;18.00;28.30;20.40;94799.00;;;;10522050;28;47171;-62
2022/03/27 10:55:11;;;;;;;5.82;3.22;;;18.00;28.40;20.40;94794.00;;;;10521285;28;47057;-62
2022/03/27 11:00:14;;;;;;;5.80;3.10;;;18.00;28.40;20.40;94771.00;;;;10504470;28;47025;-62
2022/03/27 11:05:40;;;;;;;6.38;3.10;;;18.00;28.40;20.40;94790.00;;;;10520964;28;45536;-62
2022/03/27 11:10:43;;;;;;;5.60;3.10;;;18.00;28.40;20.40;94791.00;;;;10522156;28;48125;-62
2022/03/27 11:16:12;;;;;;;5.07;2.85;;;18.00;28.40;20.40;94777.00;;;;10503834;27;47092;-62
2022/03/27 11:21:34;;;;;;;5.85;3.10;;;18.00;28.50;20.40;94776.00;;;;10521499;28;45347;-62
2022/03/27 11:26:35;;;;;;;4.32;2.80;;;18.10;28.40;20.40;94787.00;;;;10520457;27;45486;-62
2022/03/27 11:31:37;;;;;;;5.70;3.03;;;18.10;28.40;20.40;94783.00;;;;10516165;28;46100;-63
2022/03/27 11:36:48;;;;;;;5.57;2.90;;;18.00;28.40;20.50;94771.00;;;;10506068;28;45215;-63
2022/03/27 11:41:48;;;;;;;4.80;2.67;;;18.00;28.40;20.50;94762.00;;;;10484176;28;45593;-63
2022/03/27 11:46:57;;;;;;;4.90;2.95;;;18.10;28.40;20.50;94774.00;;;;10499458;28;47549;-62
2022/03/27 11:52:24;;;;;;;6.15;3.10;;;18.00;28.40;20.50;94772.00;;;;10520042;28;45581;-62
2022/03/27 11:57:24;;;;;;;5.13;2.65;;;18.10;28.30;20.50;94767.00;;;;10535151;27;45194;-63
2022/03/27 12:02:41;;;;;;;5.82;2.88;;;18.10;28.40;20.50;94763.00;;;;10519632;28;46243;-63
2022/03/27 12:07:56;;;;;;;4.93;2.90;;;18.10;28.30;20.40;94758.00;;;;10519321;28;45450;-62
2022/03/27 12:13:04;;;;;;;4.40;2.50;;;18.10;28.30;20.50;94763.00;;;;10502363;28;47954;-63
2022/03/27 12:18:05;;;;;;;6.38;3.15;;;18.10;28.30;20.50;94749.00;;;;10519706;27;45325;-63
2022/03/27 12:23:25;;;;;;;6.35;3.10;;;18.10;28.30;20.50;94763.00;;;;10519878;27;45345;-62
2022/03/27 12:33:47;;;;;;;5.38;2.95;;;18.20;28.40;20.50;94734.00;;;;10518749;28;45092;-63
2022/03/27 12:38:48;;;;;;;5.35;2.70;;;18.20;28.40;20.50;94751.00;;;;10517857;27;45199;-62
2022/03/27 12:43:57;;;;;;;4.53;2.67;;;18.20;28.40;20.60;94746.00;;;;10516731;28;47263;-62
2022/03/27 12:49:05;;;;;;;4.55;3.17;;;18.10;28.40;20.60;94740.00;;;;10517854;27;45529;-63
2022/03/27 12:54:09;;;;;;;4.07;2.50;;;18.20;28.30;20.60;94744.00;;;;10518355;28;46966;-63
2022/03/27 12:59:20;;;;;;;4.50;2.40;;;18.20;28.40;20.60;94746.00;;;;10518807;27;45335;-63
2022/03/27 13:04:21;;;;;;;3.65;2.17;;;18.20;28.40;20.60;94745.00;;;;10517418;27;45373;-63
2022/03/27 13:09:23;;;;;;;4.50;2.60;;;18.20;28.40;20.60;94730.00;;;;10518515;27;45308;-63
2022/03/27 13:14:26;;;;;;;4.30;2.58;;;18.20;28.50;20.60;94747.00;;;;10498874;28;45465;-63
2022/03/27 13:19:44;;;;;;;4.22;2.58;;;18.20;28.50;20.60;94737.00;;;;10474701;28;47636;-63
2022/03/27 13:24:49;;;;;;;5.95;2.83;;;18.20;28.50;20.60;94718.00;;;;10474897;28;47071;-63
2022/03/27 13:29:50;;;;;;;4.10;2.55;;;18.20;28.50;20.60;94724.00;;;;10474641;28;47196;-63
2022/03/27 13:34:50;;;;;;;3.70;2.25;;;18.20;28.50;20.60;94728.00;;;;10475299;28;45296;-63
2022/03/27 13:39:51;;;;;;;4.13;2.30;;;18.20;28.50;20.60;94716.00;;;;10475871;28;45561;-64
2022/03/27 13:44:52;;;;;;;4.07;2.13;;;18.20;28.50;20.60;94720.00;;;;10476487;28;46205;-63
2022/03/27 13:49:53;;;;;;;3.92;2.47;;;18.20;28.30;20.60;94719.00;;;;10476201;28;45487;-62
2022/03/27 13:54:53;;;;;;;7.15;2.58;;;18.20;28.30;20.60;94716.00;;;;10483935;28;45380;-63
2022/03/27 13:59:54;;;;;;;4.65;2.47;;;18.20;28.30;20.60;94703.00;;;;10481018;28;47264;-63
2022/03/27 14:04:57;;;;;;;4.45;2.38;;;18.20;28.10;20.70;94700.00;;;;10481642;28;45362;-63
2022/03/27 14:09:58;;;;;;;4.60;2.33;;;18.20;28.20;20.60;94701.00;;;;10480539;28;46108;-62
2022/03/27 14:14:59;;;;;;;3.65;2.22;;;18.30;28.20;20.70;94703.00;;;;10505421;28;45503;-63
2022/03/27 14:19:59;;;;;;;3.50;2.10;;;18.20;28.10;20.70;94695.00;;;;10523920;27;45195;-63
2022/03/27 14:25:01;;;;;;;3.30;2.40;;;18.30;28.10;20.70;94684.00;;;;10523072;28;45284;-62
2022/03/27 14:30:02;;;;;;;3.92;2.42;;;18.30;28.10;20.70;94670.00;;;;10521900;28;47031;-63
2022/03/27 14:35:05;;;;;;;3.83;2.35;;;18.30;28.00;20.70;94675.00;;;;10523606;28;47221;-64
2022/03/27 14:40:10;;;;;;;3.60;2.42;;;18.30;28.00;20.70;94685.00;;;;10523118;28;45195;-62
2022/03/27 14:45:13;;;;;;;4.47;2.60;;;18.20;27.90;20.60;94683.00;;;;10522222;28;45478;-64
2022/03/27 14:50:17;;;;;;;4.45;2.42;;;18.20;27.90;20.60;94668.00;;;;10495784;28;45263;-63
2022/03/27 15:00:38;;;;;;;3.60;2.47;;;18.20;27.90;20.60;94657.00;;;;10479969;28;45125;-63
2022/03/27 15:05:39;;;;;;;3.38;2.40;;;18.20;27.80;20.60;94653.00;;;;10480169;28;45352;-62
2022/03/27 15:10:41;;;;;;;3.28;2.03;;;18.20;27.80;20.60;94658.00;;;;10480166;28;45316;-62
2022/03/27 15:15:41;;;;;;;4.90;2.63;;;18.20;27.80;20.60;94660.00;;;;10480144;28;45335;-63
2022/03/27 15:20:42;;;;;;;4.53;2.80;;;18.20;27.80;20.70;94661.00;;;;10498116;28;48177;-63
2022/03/27 15:25:43;;;;;;;3.63;2.17;;;18.20;27.80;20.70;94653.00;;;;10509965;28;45498;-62
2022/03/27 15:30:44;;;;;;;3.80;2.20;;;18.30;27.60;20.70;94650.00;;;;10480670;28;46996;-62
2022/03/27 15:35:45;;;;;;;3.13;2.05;;;18.30;27.60;20.70;94636.00;;;;10510947;28;45189;-62
2022/03/27 15:40:45;;;;;;;3.10;2.03;;;18.30;27.70;20.70;94645.00;;;;10516975;28;45327;-62
2022/03/27 15:45:46;;;;;;;2.63;1.80;;;18.30;27.90;20.70;94638.00;;;;10514661;28;45358;-61
2022/03/27 15:50:49;;;;;;;4.47;2.53;;;18.30;27.90;20.80;94637.00;;;;10520015;28;45270;-61
2022/03/27 15:55:50;;;;;;;3.53;2.30;;;18.40;28.00;20.80;94633.00;;;;10520229;28;45609;-62
2022/03/27 16:00:50;;;;;;;3.83;1.95;;;18.40;28.00;20.80;94632.00;;;;10479273;28;45457;-61
2022/03/27 16:05:52;;;;;;;3.83;1.95;;;18.40;28.10;20.80;94624.00;;;;10477030;28;46643;-61
2022/03/27 16:10:53;;;;;;;2.05;1.60;;;18.50;28.30;20.50;94625.00;;;;10477317;28;45594;-61
2022/03/27 16:15:57;;;;;;;2.85;1.80;;;18.20;28.40;20.60;94639.00;;;;10478839;28;45383;-63
2022/03/27 16:20:58;;;;;;;2.78;1.73;;;18.20;28.50;20.70;94635.00;;;;10461201;28;47665;-61
2022/03/27 16:25:59;;;;;;;2.33;1.60;;;18.30;28.60;20.80;94647.00;;;;10475488;28;45290;-62
2022/03/27 16:31:01;;;;;;;3.08;1.70;;;18.40;28.60;20.80;94646.00;;;;10476335;28;46457;-62
2022/03/27 16:36:06;;;;;;;3.00;1.73;;;18.40;28.60;20.80;94648.00;;;;10475245;28;46913;-66
2022/03/27 16:41:07;;;;;;;3.50;1.45;;;18.40;28.60;20.80;94655.00;;;;10460469;28;47611;-65
2022/03/27 16:46:07;;;;;;;3.95;1.50;;;18.50;28.60;20.80;94635.00;;;;10477018;28;45356;-64
2022/03/27 16:51:08;;;;;;;3.08;1.83;;;18.40;28.80;20.80;94650.00;;;;10460412;28;47408;-64
2022/03/27 16:56:10;;;;;;;3.22;1.50;;;18.40;28.70;20.80;94653.00;;;;10476885;28;46811;-64
2022/03/27 17:01:11;;;;;;;2.40;1.50;;;18.40;28.80;20.80;94655.00;;;;10507452;28;46606;-62
2022/03/27 17:06:12;;;;;;;3.00;1.35;;;18.40;29.00;20.80;94652.00;;;;10479350;28;47149;-64
2022/03/27 17:11:13;;;;;;;3.08;1.05;;;18.40;29.10;20.80;94652.00;;;;10517294;28;45636;-63
2022/03/27 17:16:14;;;;;;;2.10;1.50;;;18.40;29.30;20.80;94665.00;;;;10518061;28;45624;-62
2022/03/27 17:21:15;;;;;;;2.63;1.60;;;18.40;29.30;20.70;94658.00;;;;10517618;28;45272;-62
2022/03/27 17:26:16;;;;;;;2.45;1.35;;;18.30;29.30;20.70;94667.00;;;;10522461;27;45510;-62
2022/03/27 17:31:17;;;;;;;3.38;1.60;;;18.30;29.40;20.70;94658.00;;;;10525594;28;46129;-62
2022/03/27 17:36:18;;;;;;;2.30;1.50;;;18.30;29.40;20.70;94667.00;;;;10501424;28;45189;-62
2022/03/27 17:41:18;;;;;;;1.98;1.45;;;18.30;29.50;20.70;94652.00;;;;10484210;28;45391;-62
2022/03/27 17:46:19;;;;;;;2.05;1.30;;;18.30;29.60;20.70;94662.00;;;;10478909;28;46305;-62
2022/03/27 17:51:20;;;;;;;1.88;1.40;;;18.20;30.00;20.70;94667.00;;;;10479931;28;45581;-62
2022/03/27 17:56:20;;;;;;;2.53;1.40;;;18.30;29.50;20.70;94660.00;;;;10498068;27;46472;-63
2022/03/27 18:01:21;;;;;;;2.17;1.20;;;18.30;29.60;20.70;94682.00;;;;10515436;28;45884;-62
2022/03/27 18:06:22;;;;;;;1.88;1.17;;;18.30;29.60;20.70;94688.00;;;;10518289;28;45552;-63
2022/03/27 18:11:23;;;;;;;1.83;1.40;;;18.20;29.50;20.70;94693.00;;;;10523884;28;48071;-69
2022/03/27 18:16:24;;;;;;;2.22;1.30;;;18.30;29.50;20.80;94693.00;;;;10523813;28;47092;-63
2022/03/27 18:21:25;;;;;;;1.80;1.02;;;18.40;29.50;20.80;94690.00;;;;10523252;27;47523;-63
2022/03/27 18:26:26;;;;;;;2.97;1.50;;;18.40;29.40;20.80;94699.00;;;;10522940;27;47116;-62
2022/03/27 18:31:27;;;;;;;2.30;1.35;;;18.40;29.40;20.80;94718.00;;;;10522528;27;46477;-64
2022/03/27 18:36:31;;;;;;;2.15;1.30;;;18.40;29.30;20.80;94719.00;;;;10522348;27;45494;-63
2022/03/27 18:41:32;;;;;;;4.22;1.38;;;18.40;29.30;20.80;94720.00;;;;10523536;28;45199;-68
2022/03/27 18:46:34;;;;;;;1.70;1.25;;;18.40;29.30;20.80;94729.00;;;;10522489;28;46114;-63
2022/03/27 18:51:34;;;;;;;3.47;1.52;;;18.40;29.30;20.80;94731.00;;;;10522737;28;45190;-63
2022/03/27 18:56:35;;;;;;;1.90;1.35;;;18.40;29.30;20.90;94723.00;;;;10523814;28;45159;-63
2022/03/27 19:01:36;;;;;;;1.52;1.17;;;18.40;29.20;20.90;94727.00;;;;10523903;27;45300;-63
2022/03/27 19:06:37;;;;;;;2.22;1.40;;;18.40;29.20;20.90;94738.00;;;;10521578;28;48272;-62
2022/03/27 19:11:38;;;;;;;2.90;1.30;;;18.40;29.20;20.90;94728.00;;;;10523856;28;45242;-63
2022/03/27 19:16:39;;;;;;;1.85;1.45;;;18.40;29.20;20.90;94746.00;;;;10521810;28;45347;-63
2022/03/27 19:21:51;;;;;;;2.50;1.40;;;18.50;29.20;20.90;94734.00;;;;10522012;27;48511;-62
2022/03/27 19:26:52;;;;;;;2.63;1.48;;;18.50;29.10;20.90;94737.00;;;;10521388;28;45646;-63
2022/03/27 19:31:52;;;;;;;1.95;1.40;;;18.50;29.10;20.90;94742.00;;;;10521478;28;48623;-63
2022/03/27 19:36:53;;;;;;;2.10;1.50;;;18.50;29.10;20.90;94740.00;;;;10520838;28;48153;-63
2022/03/27 19:41:54;;;;;;;2.80;1.77;;;18.50;29.00;20.90;94746.00;;;;10522621;28;45267;-63
2022/03/27 19:46:54;;;;;;;3.10;1.50;;;18.50;29.00;20.90;94752.00;;;;10519818;28;45437;-63
2022/03/27 19:51:58;;;;;;;2.38;1.50;;;18.50;29.00;20.90;94749.00;;;;10520551;28;45194;-62
2022/03/27 19:56:58;;;;;;;1.95;1.40;;;18.50;28.90;20.90;94752.00;;;;10519921;28;46180;-62
2022/03/27 20:01:59;;;;;;;3.03;1.70;;;18.50;29.00;20.90;94743.00;;;;10519791;28;47439;-63
2022/03/27 20:07:00;;;;;;;2.15;1.50;;;18.50;29.00;21.00;94761.00;;;;10519964;28;45576;-63
2022/03/27 20:12:03;;;;;;;2.67;1.60;;;18.50;29.00;21.00;94757.00;;;;10519907;28;47337;-62
2022/03/27 20:17:04;;;;;;;1.73;1.30;;;18.60;29.00;21.00;94760.00;;;;10519566;28;47075;-63
2022/03/27 20:22:05;;;;;;;1.42;1.15;;;18.60;29.00;21.00;94765.00;;;;10512906;28;45420;-63
2022/03/27 20:27:05;;;;;;;1.95;1.27;;;18.60;29.00;21.00;94764.00;;;;10520629;27;45192;-62
2022/03/27 20:32:09;;;;;;;1.75;1.20;;;18.60;29.00;21.00;94764.00;;;;10519123;28;45677;-62
2022/03/27 20:37:10;;;;;;;2.20;1.40;;;18.60;29.10;21.00;94777.00;;;;10519093;28;46940;-63
2022/03/27 20:42:10;;;;;;;1.80;1.20;;;18.50;29.00;21.00;94765.00;;;;10519673;28;45631;-63
2022/03/27 20:47:11;;;;;;;2.33;1.70;;;18.50;29.00;20.90;94767.00;;;;10515329;27;46423;-62
2022/03/27 20:52:12;;;;;;;2.33;1.30;;;18.50;29.10;20.90;94764.00;;;;10518536;28;45386;-61
2022/03/27 20:57:13;;;;;;;2.65;1.50;;;18.50;29.20;20.90;94773.00;;;;10519477;28;46260;-61
2022/03/27 21:02:14;;;;;;;2.28;1.50;;;18.40;29.10;20.90;94774.00;;;;10518055;28;47465;-60
2022/03/27 21:07:14;;;;;;;2.17;1.58;;;18.40;29.10;20.90;94772.00;;;;10517774;28;48203;-61
2022/03/27 21:12:15;;;;;;;2.55;1.60;;;18.40;29.20;20.80;94782.00;;;;10518656;28;45408;-61
2022/03/27 21:17:16;;;;;;;2.22;1.23;;;18.40;29.20;20.80;94769.00;;;;10519130;28;45261;-61
2022/03/27 21:22:17;;;;;;;2.72;1.40;;;18.30;29.20;20.80;94750.00;;;;10519213;28;46526;-61
2022/03/27 21:27:18;;;;;;;1.90;1.38;;;18.30;29.30;20.80;94756.00;;;;10517612;28;46199;-61
2022/03/27 21:32:19;;;;;;;2.33;1.40;;;18.30;29.30;20.80;94762.00;;;;10519151;27;45186;-61
2022/03/27 21:37:20;;;;;;;1.52;1.10;;;18.20;29.20;20.70;94751.00;;;;10517279;28;45239;-61
2022/03/27 21:42:21;;;;;;;1.50;1.15;;;18.30;29.30;20.70;94757.00;;;;10518616;27;46443;-61
2022/03/27 21:47:24;;;;;;;2.10;1.48;;;18.20;29.30;20.70;94761.00;;;;10516334;28;46288;-61
2022/03/27 21:52:24;;;;;;;2.50;1.30;;;18.20;29.30;20.70;94750.00;;;;10518883;28;45328;-61
2022/03/27 21:57:25;;;;;;;2.25;1.33;;;18.20;29.30;20.70;94760.00;;;;10516230;28;46909;-61
2022/03/27 22:02:26;;;;;;;1.70;1.20;;;18.20;29.30;20.70;94742.00;;;;10516669;28;46792;-61
2022/03/27 22:07:26;;;;;;;2.88;1.50;;;18.10;29.20;20.60;94752.00;;;;10516727;27;45396;-61
2022/03/27 22:12:27;;;;;;;3.13;1.27;;;18.20;29.30;20.60;94765.00;;;;10522352;27;45609;-61
2022/03/27 22:17:27;;;;;;;2.30;1.38;;;18.10;29.30;20.60;94764.00;;;;10523398;28;46352;-61
2022/03/27 22:22:28;;;;;;;2.25;1.58;;;18.10;29.30;20.60;94751.00;;;;10525353;28;45484;-61
2022/03/27 22:27:29;;;;;;;2.50;1.45;;;18.10;29.20;20.60;94749.00;;;;10524622;27;45239;-61